Time;durP1;ratioP1;P1;durP2;ratioP2;P2;SDS_P1;SDS_P2;PMS_P1;PMS_P2;Temp;Humidity;BMP_temperature;BMP_pressure;BME280_temperature;BME280_humidity;BME280_pressure;Samples;Min_cycle;Max_cycle;Signal;HPM_P1;HPM_P2
2023/06/30 00:00:00;;;;;;;55.17;51.33;;;;;;;17.02;94.19;99872.83;1824317;78;25454;-67
2023/06/30 00:02:26;;;;;;;14.38;10.58;;;;;;;17.02;94.53;99867.36;1824571;78;27354;-67
2023/06/30 00:04:52;;;;;;;16.40;11.10;;;;;;;17.04;94.77;99865.83;1827983;77;25729;-67
2023/06/30 00:07:23;;;;;;;14.33;10.90;;;;;;;17.05;94.88;99862.55;1830194;77;25431;-68
2023/06/30 00:09:50;;;;;;;15.32;11.88;;;;;;;17.04;94.84;99865.83;1828912;77;25535;-67
2023/06/30 00:12:16;;;;;;;14.40;12.98;;;;;;;17.04;95.06;99864.47;1829897;78;25341;-66
2023/06/30 00:14:42;;;;;;;19.80;12.30;;;;;;;17.04;95.01;99867.20;1813619;78;27170;-66
2023/06/30 00:17:09;;;;;;;14.95;13.15;;;;;;;17.05;95.26;99866.06;1829662;77;25431;-66
2023/06/30 00:19:35;;;;;;;14.47;12.23;;;;;;;17.04;95.27;99858.22;1829812;77;25461;-66
2023/06/30 00:22:01;;;;;;;15.35;12.55;;;;;;;17.04;95.28;99860.95;1813553;78;26111;-67
2023/06/30 00:24:28;;;;;;;16.12;12.03;;;;;;;17.02;95.24;99862.68;1829755;78;25651;-67
2023/06/30 00:26:55;;;;;;;14.13;11.75;;;;;;;17.01;95.25;99859.75;1829817;77;27473;-67
2023/06/30 00:29:21;;;;;;;18.10;11.93;;;;;;;17.01;95.54;99862.48;1829722;77;25541;-67
2023/06/30 00:31:47;;;;;;;14.80;11.60;;;;;;;17.01;95.57;99867.14;1829760;78;25396;-67
2023/06/30 00:34:13;;;;;;;14.07;11.85;;;;;;;17.00;95.62;99863.63;1829835;78;26337;-67
2023/06/30 00:36:40;;;;;;;15.50;13.95;;;;;;;16.98;95.58;99860.47;1813632;78;25589;-68
2023/06/30 00:39:06;;;;;;;15.75;13.22;;;;;;;16.99;95.89;99856.57;1829785;77;27475;-68
2023/06/30 00:41:32;;;;;;;19.37;17.45;;;;;;;16.97;96.08;99856.15;1829702;77;25572;-68
2023/06/30 00:43:58;;;;;;;15.80;11.38;;;;;;;16.97;96.12;99858.33;1829721;77;25394;-68
2023/06/30 00:46:25;;;;;;;18.75;16.80;;;;;;;16.97;96.32;99858.88;1829764;77;25550;-68
2023/06/30 00:48:52;;;;;;;27.13;24.82;;;;;;;16.97;96.27;99852.05;1829818;78;25609;-68
2023/06/30 00:51:19;;;;;;;14.98;12.98;;;;;;;16.97;96.28;99853.41;1829887;77;29669;-68
2023/06/30 00:53:47;;;;;;;32.28;29.55;;;;;;;16.97;96.46;99846.59;1829872;77;25440;-68
2023/06/30 00:56:13;;;;;;;28.57;26.00;;;;;;;16.97;96.32;99852.05;1829935;77;25585;-68
2023/06/30 00:58:39;;;;;;;51.58;47.98;;;;;;;16.96;96.19;99845.81;1829881;77;25529;-67
2023/06/30 01:01:38;;;;;;;72.85;68.00;;;;;;;16.96;96.05;99838.20;1829948;78;25435;-68
2023/06/30 01:04:44;;;;;;;49.27;45.60;;;;;;;16.93;95.58;99844.38;1829341;78;27445;-66
2023/06/30 01:07:18;;;;;;;25.00;22.80;;;;;;;16.90;95.36;99836.32;1823720;78;25375;-66
2023/06/30 01:10:02;;;;;;;15.53;11.40;;;;;;;16.87;95.40;99828.06;1823834;78;25537;-66
2023/06/30 01:12:30;;;;;;;14.05;10.80;;;;;;;16.85;95.46;99827.64;1823723;78;25634;-66
2023/06/30 01:14:57;;;;;;;17.32;11.88;;;;;;;16.78;95.35;99829.05;1823867;78;25517;-66
2023/06/30 01:17:25;;;;;;;19.95;12.82;;;;;;;16.73;95.33;99827.98;1823805;78;27441;-65
2023/06/30 01:19:53;;;;;;;14.18;12.68;;;;;;;16.70;95.26;99830.65;1823746;78;25344;-67
2023/06/30 01:22:44;;;;;;;14.80;12.55;;;;;;;16.66;95.39;99827.86;1803372;78;25612;-68
2023/06/30 01:25:16;;;;;;;15.28;13.45;;;;;;;16.63;95.51;99824.47;1823723;78;25617;-67
2023/06/30 01:27:43;;;;;;;18.12;16.35;;;;;;;16.58;95.45;99828.86;1802782;78;25395;-68
2023/06/30 01:30:11;;;;;;;45.05;41.98;;;;;;;16.54;95.57;99822.56;1823808;78;27486;-68
2023/06/30 01:32:38;;;;;;;12.35;10.00;;;;;;;16.51;95.78;99819.95;1823719;78;25257;-68
2023/06/30 01:35:05;;;;;;;16.27;10.15;;;;;;;16.47;95.58;99820.47;1823830;78;25600;-68
2023/06/30 01:37:31;;;;;;;18.37;12.05;;;;;;;16.43;95.79;99816.31;1803484;78;25614;-68
2023/06/30 01:39:59;;;;;;;15.05;13.20;;;;;;;16.40;95.77;99815.66;1823758;78;25574;-69
2023/06/30 01:42:28;;;;;;;14.55;10.32;;;;;;;16.38;95.80;99815.82;1823830;78;27502;-69
2023/06/30 01:44:55;;;;;;;51.77;48.25;;;;;;;16.35;95.78;99819.27;1823642;78;25353;-68
2023/06/30 01:47:22;;;;;;;50.83;47.00;;;;;;;16.31;95.95;99812.38;1823789;78;25407;-69
2023/06/30 01:49:49;;;;;;;12.18;10.20;;;;;;;16.29;95.77;99807.05;1823842;78;25570;-69
2023/06/30 01:52:16;;;;;;;15.58;12.20;;;;;;;16.25;95.84;99809.13;1823842;78;25343;-69
2023/06/30 01:54:42;;;;;;;13.88;10.80;;;;;;;16.22;95.83;99814.52;1823848;78;27445;-69
2023/06/30 01:57:08;;;;;;;12.70;9.90;;;;;;;16.19;96.06;99813.30;1823687;78;25592;-69
2023/06/30 01:59:34;;;;;;;13.90;10.53;;;;;;;16.18;95.91;99819.12;1823783;78;25529;-70
2023/06/30 02:02:00;;;;;;;13.62;10.08;;;;;;;16.14;95.71;99812.23;1823689;78;25553;-69
2023/06/30 02:04:27;;;;;;;15.15;9.83;;;;;;;16.12;96.02;99813.72;1823663;77;25606;-69
2023/06/30 02:06:56;;;;;;;12.93;9.40;;;;;;;16.07;96.16;99810.69;1823808;78;27536;-68
2023/06/30 02:09:22;;;;;;;14.80;10.48;;;;;;;16.06;96.02;99811.27;1823822;78;25588;-69
2023/06/30 02:11:49;;;;;;;11.63;10.20;;;;;;;16.03;95.69;99804.38;1823744;78;25592;-68
2023/06/30 02:14:15;;;;;;;13.53;12.20;;;;;;;16.00;95.31;99805.87;1823716;78;25595;-68
2023/06/30 02:16:41;;;;;;;13.62;9.25;;;;;;;15.97;95.28;99812.06;1803255;78;25597;-68
2023/06/30 02:19:07;;;;;;;17.05;12.73;;;;;;;15.93;95.12;99806.30;1823765;78;28169;-69
2023/06/30 02:21:33;;;;;;;12.47;9.48;;;;;;;15.91;95.19;99810.75;1823637;78;25617;-69
2023/06/30 02:24:00;;;;;;;13.70;10.23;;;;;;;15.89;95.56;99806.81;1823689;78;25414;-69
2023/06/30 02:26:26;;;;;;;14.78;10.68;;;;;;;15.87;95.43;99812.63;1823721;78;25514;-70
2023/06/30 02:28:52;;;;;;;14.80;10.72;;;;;;;15.83;95.92;99811.18;1823781;78;25585;-70
2023/06/30 02:31:18;;;;;;;18.20;15.45;;;;;;;15.82;96.17;99804.14;1823765;78;27521;-70
2023/06/30 02:33:44;;;;;;;12.82;10.45;;;;;;;15.80;96.28;99801.53;1823693;78;25711;-70
2023/06/30 02:36:11;;;;;;;18.52;14.00;;;;;;;15.79;96.40;99799.97;1823740;78;25493;-70
2023/06/30 02:38:38;;;;;;;18.40;13.80;;;;;;;15.75;96.17;99803.98;1823718;78;25528;-67
2023/06/30 02:41:04;;;;;;;68.62;64.15;;;;;;;15.72;96.28;99800.57;1823775;78;25524;-70
2023/06/30 02:43:30;;;;;;;57.50;53.30;;;;;;;15.72;96.50;99796.48;1823723;78;27467;-70
2023/06/30 02:45:56;;;;;;;12.98;11.50;;;;;;;15.72;96.68;99797.06;1823583;78;25416;-70
2023/06/30 02:48:22;;;;;;;17.42;15.68;;;;;;;15.70;96.64;99793.33;1823735;78;25430;-70
2023/06/30 02:50:48;;;;;;;15.20;10.08;;;;;;;15.68;96.89;99792.87;1823705;78;26128;-70
2023/06/30 02:53:15;;;;;;;16.02;11.35;;;;;;;15.65;96.81;99790.30;1823751;78;25653;-70
2023/06/30 02:55:41;;;;;;;16.48;11.78;;;;;;;15.61;96.66;99793.52;1803139;78;27471;-70
2023/06/30 02:58:07;;;;;;;12.78;11.28;;;;;;;15.62;96.88;99792.94;1823623;78;27419;-70
2023/06/30 03:00:34;;;;;;;14.33;11.05;;;;;;;15.60;97.07;99785.70;1823702;78;25350;-70
2023/06/30 03:03:00;;;;;;;25.37;23.27;;;;;;;15.60;97.25;99788.42;1823938;78;25496;-70
2023/06/30 03:05:29;;;;;;;30.50;28.20;;;;;;;15.60;97.71;99786.48;1825471;78;25371;-70
2023/06/30 03:07:55;;;;;;;12.53;10.82;;;;;;;15.63;98.33;99784.41;1825885;78;27466;-70
2023/06/30 03:10:21;;;;;;;16.90;15.23;;;;;;;15.66;98.81;99787.80;1825189;78;25942;-70
2023/06/30 03:12:48;;;;;;;77.12;72.03;;;;;;;15.71;99.33;99785.34;1823866;77;25169;-70
2023/06/30 03:15:14;;;;;;;85.90;80.32;;;;;;;15.75;99.40;99788.98;1823727;78;25542;-70
2023/06/30 03:17:40;;;;;;;43.65;40.48;;;;;;;15.79;99.68;99788.48;1823839;78;25593;-70
2023/06/30 03:20:12;;;;;;;75.32;70.35;;;;;;;15.82;99.41;99787.77;1823703;78;27464;-70
2023/06/30 03:22:41;;;;;;;28.45;26.10;;;;;;;15.85;99.38;99788.98;1804005;78;25773;-70
2023/06/30 03:25:09;;;;;;;17.37;13.50;;;;;;;15.88;99.23;99785.55;1823814;78;25418;-71
2023/06/30 03:27:36;;;;;;;15.68;10.38;;;;;;;15.91;99.39;99789.52;1823656;78;25464;-71
2023/06/30 03:30:04;;;;;;;13.28;10.48;;;;;;;15.93;99.61;99787.22;1823734;78;25464;-71
2023/06/30 03:32:32;;;;;;;15.05;13.55;;;;;;;15.95;99.51;99785.70;1823836;78;27708;-71
2023/06/30 03:35:03;;;;;;;14.53;11.83;;;;;;;15.97;99.64;99784.78;1823654;78;25594;-71
2023/06/30 03:37:31;;;;;;;13.20;10.88;;;;;;;16.00;99.48;99788.14;1823751;78;25387;-69
2023/06/30 03:40:00;;;;;;;14.40;11.88;;;;;;;16.02;99.45;99786.42;1823685;78;25584;-69
2023/06/30 03:42:27;;;;;;;15.43;13.83;;;;;;;16.05;99.49;99787.86;1823713;78;25494;-69
2023/06/30 03:44:53;;;;;;;15.55;13.98;;;;;;;16.05;99.71;99785.13;1823631;78;27561;-68
2023/06/30 03:47:20;;;;;;;16.60;14.83;;;;;;;16.07;99.55;99779.31;1823568;78;25582;-68
2023/06/30 03:49:46;;;;;;;63.10;58.80;;;;;;;16.11;99.82;99783.51;1823662;78;25574;-68
2023/06/30 03:52:12;;;;;;;20.02;13.95;;;;;;;16.12;99.73;99775.52;1823645;78;25563;-68
2023/06/30 03:54:38;;;;;;;17.05;14.05;;;;;;;16.16;100.00;99777.77;1823736;78;25435;-68
2023/06/30 03:57:04;;;;;;;17.98;12.90;;;;;;;16.22;100.00;99777.67;1823689;78;27553;-69
2023/06/30 03:59:31;;;;;;;16.62;14.83;;;;;;;16.27;100.00;99777.97;1823614;78;25717;-69
2023/06/30 04:01:57;;;;;;;15.60;13.75;;;;;;;16.35;100.00;99782.42;1823678;78;25345;-69
2023/06/30 04:04:24;;;;;;;19.62;16.65;;;;;;;16.42;100.00;99786.65;1823651;78;25453;-69
2023/06/30 04:06:50;;;;;;;18.32;16.60;;;;;;;16.47;100.00;99784.99;1828848;77;25368;-69
2023/06/30 04:09:16;;;;;;;21.15;18.87;;;;;;;16.52;100.00;99787.42;1829805;77;27769;-69
2023/06/30 04:11:42;;;;;;;22.10;17.45;;;;;;;16.57;100.00;99785.77;1829716;77;25389;-69
2023/06/30 04:14:09;;;;;;;18.12;14.18;;;;;;;16.64;100.00;99785.11;1829750;77;25593;-69
2023/06/30 04:16:36;;;;;;;20.32;14.45;;;;;;;16.70;100.00;99784.23;1829747;78;25613;-69
2023/06/30 04:19:02;;;;;;;16.23;13.50;;;;;;;16.70;100.00;99780.94;1829763;77;25435;-69
2023/06/30 04:21:28;;;;;;;15.85;13.43;;;;;;;16.73;100.00;99782.14;1829796;77;27368;-68
2023/06/30 04:23:54;;;;;;;15.98;13.28;;;;;;;16.74;100.00;99784.52;1813612;78;25920;-73
2023/06/30 04:26:20;;;;;;;17.32;15.38;;;;;;;16.76;100.00;99784.16;1830054;77;25508;-70
2023/06/30 04:28:46;;;;;;;16.37;13.93;;;;;;;16.78;100.00;99792.77;1829869;78;25614;-70
2023/06/30 04:31:13;;;;;;;17.70;15.40;;;;;;;16.78;100.00;99790.03;1829952;78;25400;-70
2023/06/30 04:33:39;;;;;;;16.00;14.35;;;;;;;16.79;100.00;99796.50;1829965;77;27508;-69
2023/06/30 04:36:06;;;;;;;60.65;56.25;;;;;;;16.78;100.00;99793.55;1829858;78;25369;-69
2023/06/30 04:38:35;;;;;;;16.55;13.83;;;;;;;16.80;100.00;99790.45;1829931;77;25513;-70
2023/06/30 04:41:02;;;;;;;16.93;12.53;;;;;;;16.83;100.00;99792.47;1813682;78;25638;-69
2023/06/30 04:43:28;;;;;;;16.02;14.00;;;;;;;16.84;100.00;99794.61;1830057;78;25450;-69
2023/06/30 04:45:55;;;;;;;24.82;22.52;;;;;;;16.86;100.00;99788.27;1830023;78;27524;-69
2023/06/30 04:48:21;;;;;;;17.92;15.88;;;;;;;16.86;100.00;99790.41;1831367;78;25933;-68
2023/06/30 04:50:47;;;;;;;22.00;15.25;;;;;;;16.86;100.00;99793.14;1815817;78;25524;-56
2023/06/30 04:53:14;;;;;;;23.40;19.70;;;;;;;16.88;100.00;99789.47;1830179;78;25508;-54
2023/06/30 04:55:40;;;;;;;28.87;26.27;;;;;;;16.96;100.00;99792.54;1813822;78;25481;-56
2023/06/30 04:58:07;;;;;;;42.10;38.80;;;;;;;17.07;100.00;99799.54;1829890;78;28013;-53
2023/06/30 05:00:33;;;;;;;21.87;16.42;;;;;;;17.16;100.00;99792.45;1829826;77;25433;-57
2023/06/30 05:02:59;;;;;;;19.45;16.37;;;;;;;17.20;100.00;99796.61;1830018;77;25539;-58
2023/06/30 05:05:26;;;;;;;22.48;15.85;;;;;;;17.21;100.00;99795.47;1829759;77;25640;-58
2023/06/30 05:07:52;;;;;;;21.07;16.62;;;;;;;17.23;100.00;99797.25;1829991;78;25544;-58
2023/06/30 05:10:18;;;;;;;30.12;27.42;;;;;;;17.28;100.00;99792.84;1829867;78;27503;-65
2023/06/30 05:12:44;;;;;;;27.05;24.45;;;;;;;17.30;100.00;99791.92;1828611;78;25679;-65
2023/06/30 05:15:13;;;;;;;85.90;80.00;;;;;;;17.32;100.00;99800.54;1812118;78;25537;-65
2023/06/30 05:17:39;;;;;;;90.62;83.78;;;;;;;17.33;100.00;99794.70;1828718;77;25688;-65
2023/06/30 05:20:08;;;;;;;89.83;83.95;;;;;;;17.35;100.00;99799.81;1828529;78;25610;-65
2023/06/30 05:22:35;;;;;;;43.83;40.28;;;;;;;17.36;100.00;99802.73;1806146;78;27429;-65
2023/06/30 05:25:02;;;;;;;83.05;77.42;;;;;;;17.41;100.00;99803.02;1828436;78;25724;-65
2023/06/30 05:27:28;;;;;;;60.15;55.70;;;;;;;17.45;100.00;99796.45;1813044;78;25476;-65
2023/06/30 05:29:55;;;;;;;20.88;18.67;;;;;;;17.55;100.00;99801.85;1829821;78;25551;-65
2023/06/30 05:32:22;;;;;;;30.27;26.20;;;;;;;17.69;100.00;99799.90;1829974;77;25549;-65
2023/06/30 05:34:50;;;;;;;84.03;78.20;;;;;;;17.81;100.00;99796.97;1829909;77;27529;-65
2023/06/30 05:37:17;;;;;;;23.73;19.90;;;;;;;18.00;100.00;99796.07;1829927;78;25372;-65
2023/06/30 05:39:43;;;;;;;65.55;60.52;;;;;;;18.21;100.00;99799.64;1829896;78;25577;-66
2023/06/30 05:42:10;;;;;;;61.83;57.27;;;;;;;18.42;100.00;99798.31;1829878;77;25486;-66
2023/06/30 05:44:36;;;;;;;29.70;18.67;;;;;;;18.65;100.00;99801.70;1829900;78;25390;-66
2023/06/30 05:47:03;;;;;;;23.52;19.48;;;;;;;18.87;100.00;99799.22;1829877;77;27528;-65
2023/06/30 05:49:30;;;;;;;23.22;16.70;;;;;;;19.01;100.00;99795.81;1814088;78;26117;-65
2023/06/30 05:51:57;;;;;;;24.87;18.15;;;;;;;19.17;100.00;99802.41;1829936;77;25631;-66
2023/06/30 05:54:24;;;;;;;39.27;35.45;;;;;;;19.33;100.00;99799.41;1829882;78;25558;-66
2023/06/30 05:56:50;;;;;;;77.62;72.25;;;;;;;19.48;100.00;99799.72;1829873;78;25533;-66
2023/06/30 05:59:16;;;;;;;83.40;77.53;;;;;;;19.64;100.00;99804.13;1829830;78;27525;-65
2023/06/30 06:01:42;;;;;;;49.50;45.85;;;;;;;19.76;100.00;99801.09;1829742;77;25796;-65
2023/06/30 06:04:11;;;;;;;31.87;29.07;;;;;;;19.89;100.00;99802.94;1829837;77;25361;-65
2023/06/30 06:06:38;;;;;;;20.88;14.73;;;;;;;19.99;98.96;99795.91;1811205;78;25403;-66
2023/06/30 06:09:05;;;;;;;18.87;14.60;;;;;;;20.05;98.56;99797.13;1826986;78;25378;-65
2023/06/30 06:11:32;;;;;;;18.20;13.98;;;;;;;20.13;97.73;99805.00;1826999;78;27579;-65
2023/06/30 06:13:58;;;;;;;14.85;12.78;;;;;;;20.22;97.97;99799.75;1826881;78;25442;-65
2023/06/30 06:16:25;;;;;;;14.63;12.37;;;;;;;20.28;96.68;99805.08;1826902;78;25385;-65
2023/06/30 06:18:52;;;;;;;13.40;11.70;;;;;;;20.33;95.95;99799.98;1826923;78;26075;-65
2023/06/30 06:21:18;;;;;;;13.68;11.65;;;;;;;20.40;96.66;99797.85;1826991;78;25380;-65
2023/06/30 06:23:44;;;;;;;11.33;9.90;;;;;;;20.48;95.70;99801.39;1826917;78;28126;-65
2023/06/30 06:26:11;;;;;;;14.10;10.00;;;;;;;20.49;94.48;99804.35;1826846;78;25569;-64
2023/06/30 06:28:37;;;;;;;10.93;9.55;;;;;;;20.52;93.54;99802.20;1826957;78;25490;-64
2023/06/30 06:31:04;;;;;;;11.78;9.55;;;;;;;20.59;93.73;99798.70;1826862;78;25581;-65
2023/06/30 06:33:30;;;;;;;16.00;10.00;;;;;;;20.66;93.53;99802.86;1826964;78;25605;-65
2023/06/30 06:35:57;;;;;;;12.20;9.83;;;;;;;20.77;93.77;99797.37;1826964;78;27423;-65
2023/06/30 06:38:25;;;;;;;12.10;9.50;;;;;;;20.86;92.90;99795.05;1826858;78;25800;-65
2023/06/30 06:40:51;;;;;;;13.65;9.35;;;;;;;20.95;92.57;99803.68;1826951;78;25565;-65
2023/06/30 06:43:17;;;;;;;11.53;9.98;;;;;;;21.05;92.71;99804.27;1826892;78;25523;-65
2023/06/30 06:45:46;;;;;;;10.35;9.00;;;;;;;21.17;92.08;99798.98;1826930;78;25427;-65
2023/06/30 06:48:25;;;;;;;;;;;;;;;21.34;91.92;99804.27;1829591;78;28654;-65
2023/06/30 06:51:00;;;;;;;14.80;8.50;;;;;;;21.49;92.54;99800.16;1826909;77;25618;-66
2023/06/30 06:53:35;;;;;;;9.93;7.83;;;;;;;21.69;91.73;99807.40;1826947;78;25632;-65
2023/06/30 06:56:04;;;;;;;7.90;7.10;;;;;;;21.83;89.63;99804.03;1826925;78;25653;-65
2023/06/30 06:58:38;;;;;;;8.83;6.87;;;;;;;21.99;89.63;99808.31;1826992;78;25513;-65
2023/06/30 07:01:05;;;;;;;7.33;6.17;;;;;;;22.19;89.50;99804.50;1826965;78;27491;-65
2023/06/30 07:03:32;;;;;;;8.95;6.62;;;;;;;22.42;88.13;99806.77;1826834;78;25704;-65
2023/06/30 07:05:59;;;;;;;7.87;6.72;;;;;;;22.57;85.89;99797.84;1827159;77;25463;-65
2023/06/30 07:08:26;;;;;;;9.98;7.10;;;;;;;22.75;84.91;99804.03;1829782;77;25551;-65
2023/06/30 07:10:53;;;;;;;7.50;6.17;;;;;;;22.94;83.88;99802.72;1829849;78;25379;-64
2023/06/30 07:13:22;;;;;;;7.58;6.90;;;;;;;23.17;84.20;99797.84;1813669;78;27869;-64
2023/06/30 07:15:50;;;;;;;10.13;6.15;;;;;;;23.42;82.59;99792.89;1829769;77;25375;-64
2023/06/30 07:18:19;;;;;;;11.20;10.18;;;;;;;23.60;81.15;99805.72;1829771;78;25369;-64
2023/06/30 07:20:48;;;;;;;13.95;8.58;;;;;;;23.72;80.19;99795.56;1829911;78;26018;-64
2023/06/30 07:23:15;;;;;;;9.63;7.97;;;;;;;23.90;79.33;99802.28;1830076;78;25671;-65
2023/06/30 07:25:44;;;;;;;13.62;12.47;;;;;;;24.03;78.68;99795.64;1829814;77;27444;-65
2023/06/30 07:28:12;;;;;;;24.57;22.90;;;;;;;24.27;76.82;99798.51;1828633;77;25598;-65
2023/06/30 07:30:41;;;;;;;46.42;43.42;;;;;;;24.34;75.65;99795.64;1829809;77;25552;-65
2023/06/30 07:33:07;;;;;;;8.58;7.12;;;;;;;24.49;74.58;99787.34;1829881;78;25511;-65
2023/06/30 07:35:33;;;;;;;72.90;68.65;;;;;;;24.66;72.77;99786.16;1829732;77;25425;-65
2023/06/30 07:38:00;;;;;;;8.18;5.65;;;;;;;24.69;72.18;99791.63;1829818;77;27461;-65
2023/06/30 07:40:26;;;;;;;15.28;14.07;;;;;;;24.79;71.98;99793.45;1829708;78;25767;-65
2023/06/30 07:42:53;;;;;;;38.35;36.13;;;;;;;25.00;71.72;99791.55;1829846;78;25577;-65
2023/06/30 07:45:19;;;;;;;7.67;5.55;;;;;;;25.22;71.39;99788.44;1829721;77;25516;-65
2023/06/30 07:47:47;;;;;;;7.12;6.35;;;;;;;25.52;71.20;99785.55;1829831;78;25328;-65
2023/06/30 07:50:15;;;;;;;9.78;7.30;;;;;;;25.79;69.78;99785.25;1829866;78;27515;-64
2023/06/30 07:52:48;;;;;;;15.63;14.35;;;;;;;26.00;68.30;99784.06;1830774;78;25593;-64
2023/06/30 07:55:17;;;;;;;7.80;6.30;;;;;;;26.19;69.05;99776.97;1831898;78;25185;-64
2023/06/30 07:57:46;;;;;;;8.58;5.15;;;;;;;26.53;66.38;99783.53;1832188;78;25586;-64
2023/06/30 08:00:15;;;;;;;8.58;5.42;;;;;;;26.63;65.21;99783.93;1831800;78;25435;-64
2023/06/30 08:02:43;;;;;;;8.78;5.67;;;;;;;26.71;64.36;99774.81;1830115;77;28092;-65
2023/06/30 08:05:11;;;;;;;10.63;5.60;;;;;;;26.64;63.30;99777.77;1813530;78;25647;-64
2023/06/30 08:07:39;;;;;;;8.15;4.58;;;;;;;26.61;63.39;99769.69;1825886;78;25521;-65
2023/06/30 08:10:08;;;;;;;8.03;4.87;;;;;;;26.72;62.77;99768.69;1823956;78;25561;-65
2023/06/30 08:12:34;;;;;;;7.33;4.85;;;;;;;26.76;61.93;99772.14;1820772;78;32793;-65
2023/06/30 08:15:01;;;;;;;8.35;4.92;;;;;;;26.91;62.16;99767.04;1823723;78;27394;-64
2023/06/30 08:17:27;;;;;;;6.83;5.00;;;;;;;27.20;61.80;99765.71;1823643;78;25897;-65
2023/06/30 08:19:53;;;;;;;9.75;4.30;;;;;;;27.50;60.43;99763.17;1823598;78;25599;-65
2023/06/30 08:22:21;;;;;;;5.55;4.97;;;;;;;27.84;59.63;99759.65;1823607;78;25527;-65
2023/06/30 08:24:48;;;;;;;8.83;5.15;;;;;;;27.97;58.75;99759.73;1823743;78;25432;-65
2023/06/30 08:27:16;;;;;;;5.35;4.20;;;;;;;28.00;57.70;99752.67;1823615;78;27429;-65
2023/06/30 08:29:43;;;;;;;27.40;25.40;;;;;;;28.24;57.80;99757.94;1823887;78;25412;-65
2023/06/30 08:32:11;;;;;;;8.15;7.42;;;;;;;28.59;57.47;99752.50;1823777;78;25587;-65
2023/06/30 08:34:38;;;;;;;5.47;3.97;;;;;;;29.13;57.09;99754.93;1824010;78;26254;-65
2023/06/30 08:37:06;;;;;;;52.27;49.23;;;;;;;29.32;54.75;99750.33;1823846;78;25411;-66
2023/06/30 08:39:33;;;;;;;8.63;3.65;;;;;;;29.53;52.81;99745.41;1823699;78;28221;-64
2023/06/30 08:42:04;;;;;;;7.53;3.70;;;;;;;29.43;50.56;99745.17;1823522;78;25748;-55
2023/06/30 08:44:34;;;;;;;12.63;4.00;;;;;;;29.04;49.69;99741.70;1823756;78;25447;-56
2023/06/30 08:47:03;;;;;;;5.22;3.52;;;;;;;28.62;49.56;99748.25;1823552;78;25620;-56
2023/06/30 08:49:31;;;;;;;6.62;3.70;;;;;;;28.25;50.33;99740.81;1823888;78;25629;-57
2023/06/30 08:51:58;;;;;;;5.90;3.37;;;;;;;27.98;50.65;99746.02;1803430;78;27595;-56
2023/06/30 08:54:30;;;;;;;4.70;3.20;;;;;;;27.71;50.72;99749.91;1823816;78;25377;-56
2023/06/30 08:57:00;;;;;;;6.90;3.47;;;;;;;27.49;51.14;99746.32;1823719;78;25494;-57
2023/06/30 08:59:28;;;;;;;5.15;2.90;;;;;;;27.59;51.64;99743.09;1823587;78;25535;-56
2023/06/30 09:01:57;;;;;;;5.57;3.07;;;;;;;28.65;51.34;99737.59;1824082;78;25364;-56
2023/06/30 09:04:26;;;;;;;7.50;3.12;;;;;;;28.65;51.34;99737.59;1823694;78;28273;-54
2023/06/30 09:06:53;;;;;;;62.80;59.38;;;;;;;29.23;51.21;99736.52;1802434;78;25634;-52
2023/06/30 09:09:26;;;;;;;13.90;12.82;;;;;;;29.96;49.82;99730.53;1822465;78;25653;-53
2023/06/30 09:11:54;;;;;;;61.45;57.93;;;;;;;30.44;48.06;99730.31;1822720;78;25619;-53
2023/06/30 09:14:24;;;;;;;58.73;55.23;;;;;;;30.52;45.81;99739.33;1803529;78;25571;-57
2023/06/30 09:17:33;;;;;;;29.70;28.02;;;;;;;30.40;44.79;99729.06;1824091;78;28042;-57
2023/06/30 09:20:07;;;;;;;64.37;61.00;;;;;;;30.34;45.82;99722.48;1802252;78;25770;-66
2023/06/30 09:22:42;;;;;;;61.85;58.35;;;;;;;30.71;45.14;99720.61;1823402;78;25541;-66
2023/06/30 09:25:55;;;;;;;68.62;64.50;;;;;;;31.20;43.61;99719.63;1824249;78;26201;-68
2023/06/30 09:28:22;;;;;;;60.33;56.65;;;;;;;31.59;42.86;99708.14;1823362;78;25630;-69
2023/06/30 09:30:49;;;;;;;61.35;58.15;;;;;;;30.97;41.37;99547.90;1823116;78;27528;-70
2023/06/30 09:33:17;;;;;;;62.15;58.78;;;;;;;32.32;41.30;99708.42;1823920;78;25523;-69
2023/06/30 09:35:50;;;;;;;59.23;56.13;;;;;;;32.63;39.15;99709.51;1824150;78;25453;-69
2023/06/30 09:38:19;;;;;;;52.53;49.48;;;;;;;32.27;38.30;99716.83;1824030;78;25498;-69
2023/06/30 09:40:52;;;;;;;6.50;2.98;;;;;;;31.59;38.30;99717.16;1824004;78;25542;-66
2023/06/30 09:43:25;;;;;;;6.47;3.58;;;;;;;31.06;38.03;99714.81;1803427;78;27573;-67
2023/06/30 09:46:01;;;;;;;5.97;3.25;;;;;;;30.64;38.95;99721.54;1823878;78;25552;-69
2023/06/30 09:48:43;;;;;;;49.25;46.00;;;;;;;30.48;39.25;99725.38;1823951;78;25364;-69
2023/06/30 09:51:12;;;;;;;58.38;55.15;;;;;;;30.63;39.57;99724.95;1823861;78;26310;-70
2023/06/30 09:53:41;;;;;;;61.05;57.67;;;;;;;30.88;39.65;99716.92;1823841;78;25608;-69
2023/06/30 09:56:08;;;;;;;64.33;60.97;;;;;;;31.00;39.09;99715.27;1824055;78;28095;-68
2023/06/30 09:58:39;;;;;;;61.50;58.02;;;;;;;30.93;38.57;99714.77;1823854;78;25594;-68
2023/06/30 10:01:08;;;;;;;60.10;56.98;;;;;;;30.73;38.90;99716.77;1823871;78;25562;-66
2023/06/30 10:03:55;;;;;;;58.60;55.63;;;;;;;31.18;38.80;99708.92;1823898;78;25568;-65
2023/06/30 10:06:23;;;;;;;60.48;57.17;;;;;;;31.75;38.52;99711.20;1823843;78;25608;-65
2023/06/30 10:08:51;;;;;;;57.48;54.48;;;;;;;32.42;38.70;99701.52;1829108;77;28164;-63
2023/06/30 10:11:22;;;;;;;58.95;55.73;;;;;;;32.76;36.57;99700.89;1829819;78;25518;-64
2023/06/30 10:13:53;;;;;;;58.68;55.65;;;;;;;33.23;36.45;99701.33;1829908;78;25594;-64
2023/06/30 10:16:22;;;;;;;54.73;51.80;;;;;;;33.75;36.82;99696.18;1829909;78;25551;-63
2023/06/30 10:18:50;;;;;;;4.97;4.35;;;;;;;34.17;35.02;99700.66;1830034;77;25589;-64
2023/06/30 10:21:17;;;;;;;7.62;3.30;;;;;;;33.91;33.61;99702.55;1813795;78;28080;-64
2023/06/30 10:23:48;;;;;;;8.93;2.65;;;;;;;33.42;33.40;99701.93;1829787;77;25679;-64
2023/06/30 10:26:21;;;;;;;4.45;2.55;;;;;;;32.87;33.09;99697.53;1829839;77;25564;-64
2023/06/30 10:28:49;;;;;;;6.25;2.52;;;;;;;32.45;33.86;99689.99;1829843;77;25547;-66
2023/06/30 10:31:17;;;;;;;;;;;;;;;32.25;34.49;99687.75;1832592;78;25383;-65
2023/06/30 10:33:44;;;;;;;5.60;3.12;;;;;;;32.08;35.34;99683.96;1841607;77;27378;-65
2023/06/30 10:36:12;;;;;;;9.13;2.85;;;;;;;32.06;35.69;99685.03;1829858;77;25662;-66
2023/06/30 10:38:42;;;;;;;6.53;4.67;;;;;;;31.97;35.25;99681.63;1830018;77;25436;-65
2023/06/30 10:41:19;;;;;;;12.30;11.43;;;;;;;31.88;34.54;99680.27;1813519;78;25668;-65
2023/06/30 10:44:07;;;;;;;28.35;26.87;;;;;;;31.94;35.36;99683.20;1829902;78;25448;-66
2023/06/30 10:46:46;;;;;;;60.43;57.17;;;;;;;32.32;35.34;99673.44;1829949;77;28148;-63
2023/06/30 10:49:36;;;;;;;52.08;49.27;;;;;;;32.67;34.89;99679.94;1829807;78;25434;-64
2023/06/30 10:52:11;;;;;;;59.25;56.15;;;;;;;32.84;33.81;99675.45;1829909;78;25400;-65
2023/06/30 10:54:47;;;;;;;59.00;55.67;;;;;;;33.06;32.96;99669.52;1829863;78;25474;-63
2023/06/30 10:57:24;;;;;;;59.58;56.50;;;;;;;33.34;32.34;99672.13;1824090;78;25710;-62
2023/06/30 11:00:10;;;;;;;58.52;55.38;;;;;;;33.58;33.40;99655.82;1829875;78;27816;-62
2023/06/30 11:02:59;;;;;;;49.88;47.38;;;;;;;33.95;32.30;99660.44;1829801;77;25376;-63
2023/06/30 11:05:32;;;;;;;57.93;54.77;;;;;;;34.24;33.32;99661.62;1829858;78;25542;-63
2023/06/30 11:08:09;;;;;;;58.42;55.52;;;;;;;34.79;32.24;99654.47;1827366;77;25542;-62
2023/06/30 11:10:47;;;;;;;57.48;54.50;;;;;;;35.24;32.16;99655.62;1823801;78;25386;-62
2023/06/30 11:13:14;;;;;;;58.48;55.48;;;;;;;35.55;30.99;99649.25;1823758;78;27556;-62
2023/06/30 11:15:48;;;;;;;58.38;55.30;;;;;;;35.29;29.91;99654.26;1823598;78;25597;-63
2023/06/30 11:18:21;;;;;;;58.58;55.48;;;;;;;35.03;30.77;99647.84;1803229;78;25608;-63
2023/06/30 11:21:04;;;;;;;55.10;51.90;;;;;;;35.13;30.83;99637.98;1823710;78;26100;-62
2023/06/30 11:23:39;;;;;;;56.42;53.63;;;;;;;35.46;31.11;99648.03;1823758;78;25372;-59
2023/06/30 11:26:16;;;;;;;58.08;55.03;;;;;;;35.42;30.69;99643.28;1823675;78;27460;-63